Donna Rushing — WDB9961 — position and weather

sailwx.info

Track history (hours):
 
Tides and Currents Weather Stations Pressure Air Temp Water Temp Dewpoint Dewpoint Depression Visibility Wind Speed Wind Dir Waves Ship Positions

Donna Rushing

Owner: AEP River Operations LLC, Chesterfield, MO. More information available from US FCC via Universal Licensing System and Coast Guard Vessel Documentation Center.

Last reported at 2015-Apr-18 11:07 UTC. Time now 2015-Apr-19 14:11 UTC.
Position N 38°38' W 083°40'.

Length 46 m.

Type: Towing. MMSI: 366985720.

Date/timePositionNaut miles runAvg speedWind from/ knotsBaromVisibWave heightAir tempDewpointWater temp
2015-Apr-18 11:07N 38°38' W 083°40'4 1.7
2015-Apr-18 08:32N 38°39' W 083°46'3 3.1
2015-Apr-18 07:31N 38°42' W 083°47'3 2.9
2015-Apr-18 06:27N 38°44' W 083°51'3 3.1
2015-Apr-18 05:33N 38°46' W 083°53'4 3.2
2015-Apr-18 04:26N 38°47' W 083°57'4 3.4
2015-Apr-18 03:12N 38°46' W 084°03'2 3.5
2015-Apr-18 02:32N 38°46' W 084°06'4 3.5
2015-Apr-18 01:31N 38°48' W 084°10'1 0.8
2015-Apr-18 00:33N 38°48' W 084°11'3 2.9
2015-Apr-17 23:27N 38°50' W 084°14'3 3.2
2015-Apr-17 22:33N 38°53' W 084°14'4 3.6
2015-Apr-17 21:33N 38°56' W 084°16'3 3.4
2015-Apr-17 20:33N 38°59' W 084°18'4 3.6
2015-Apr-17 19:33N 39°02' W 084°21'4 4.1
2015-Apr-17 18:34N 39°03' W 084°26'4 3.8
2015-Apr-17 17:32N 39°07' W 084°27'3 3.2
2015-Apr-17 16:33N 39°06' W 084°31'2 1.5
2015-Apr-17 15:33N 39°06' W 084°33'2 2.0
2015-Apr-17 14:33N 39°05' W 084°35'3 3.3
2015-Apr-17 13:32N 39°05' W 084°39'2 1.9
2015-Apr-17 12:31N 39°06' W 084°41'0 0.0
2015-Apr-17 11:33N 39°06' W 084°41'0 0.0
2015-Apr-17 10:33N 39°06' W 084°41'0 0.0
2015-Apr-17 09:33N 39°06' W 084°41'0 0.0
2015-Apr-17 08:32N 39°06' W 084°41'0 0.0
2015-Apr-17 07:33N 39°06' W 084°41'0 0.0
2015-Apr-17 06:32N 39°06' W 084°41'0 0.0
2015-Apr-17 05:33N 39°06' W 084°41'0 0.0
2015-Apr-17 04:30N 39°06' W 084°41'2 1.6
2015-Apr-17 03:33N 39°07' W 084°42'3 3.1
2015-Apr-17 02:30N 39°07' W 084°47'7 3.4
2015-Apr-17 00:26N 39°03' W 084°53'  
Track history (hours):
 
Tides and Currents Weather Stations Pressure Air Temp Water Temp Dewpoint Dewpoint Depression Visibility Wind Speed Wind Dir Waves Ship Positions

Donna Rushing

Owner: AEP River Operations LLC, Chesterfield, MO. More information available from US FCC via Universal Licensing System and Coast Guard Vessel Documentation Center.

Last reported at 2015-Apr-18 11:07 UTC. Time now 2015-Apr-19 14:11 UTC.
Position N 38°38' W 083°40'.

Length 46 m.

Type: Towing. MMSI: 366985720.

Date/timePositionNaut miles runAvg speedWind from/ knotsBaromVisibWave heightAir tempDewpointWater temp
2015-Apr-18 11:07N 38°38' W 083°40'4 1.7
2015-Apr-18 08:32N 38°39' W 083°46'3 3.1
2015-Apr-18 07:31N 38°42' W 083°47'3 2.9
2015-Apr-18 06:27N 38°44' W 083°51'3 3.1
2015-Apr-18 05:33N 38°46' W 083°53'4 3.2
2015-Apr-18 04:26N 38°47' W 083°57'4 3.4
2015-Apr-18 03:12N 38°46' W 084°03'2 3.5
2015-Apr-18 02:32N 38°46' W 084°06'4 3.5
2015-Apr-18 01:31N 38°48' W 084°10'1 0.8
2015-Apr-18 00:33N 38°48' W 084°11'3 2.9
2015-Apr-17 23:27N 38°50' W 084°14'3 3.2
2015-Apr-17 22:33N 38°53' W 084°14'4 3.6
2015-Apr-17 21:33N 38°56' W 084°16'3 3.4
2015-Apr-17 20:33N 38°59' W 084°18'4 3.6
2015-Apr-17 19:33N 39°02' W 084°21'4 4.1
2015-Apr-17 18:34N 39°03' W 084°26'4 3.8
2015-Apr-17 17:32N 39°07' W 084°27'3 3.2
2015-Apr-17 16:33N 39°06' W 084°31'2 1.5
2015-Apr-17 15:33N 39°06' W 084°33'2 2.0
2015-Apr-17 14:33N 39°05' W 084°35'3 3.3
2015-Apr-17 13:32N 39°05' W 084°39'2 1.9
2015-Apr-17 12:31N 39°06' W 084°41'0 0.0
2015-Apr-17 11:33N 39°06' W 084°41'0 0.0
2015-Apr-17 10:33N 39°06' W 084°41'0 0.0
2015-Apr-17 09:33N 39°06' W 084°41'0 0.0
2015-Apr-17 08:32N 39°06' W 084°41'0 0.0
2015-Apr-17 07:33N 39°06' W 084°41'0 0.0
2015-Apr-17 06:32N 39°06' W 084°41'0 0.0
2015-Apr-17 05:33N 39°06' W 084°41'0 0.0
2015-Apr-17 04:30N 39°06' W 084°41'2 1.6
2015-Apr-17 03:33N 39°07' W 084°42'3 3.1
2015-Apr-17 02:30N 39°07' W 084°47'7 3.4
2015-Apr-17 00:26N 39°03' W 084°53'  

Dump ship's entire track history